Carbondale, IL

7:43 PM CDT on October 24, 2014 (GMT -0500)
Harrisburg-Raleigh | Change Station
CLOSE
Current Station
Airport
Location: Harrisburg,
Elevation: 397 ft
Nearby Weather Stations

Elev 397 ft 37.81 °N, 88.55 °W | Updated 8 minutes ago

Partly Cloudy
Partly Cloudy
54 °F
Feels Like 54 °F
N
0
Wind Variable Wind from North

Today
High -- | Low -- °F
--% Chance of Precip.
Yesterday
High -- | Low -- °F
Precip. -- in
7:13 AM 6:07 PM
New Moon, 1% visible
Pressure 30.06 in
Visibility 7.0 miles
Clouds Clear
Dew Point 53 °F
Humidity 97%
Rainfall 0.00 in
Snow Depth Not available.
UV 0 out of 12
Pollen 1.80 out of 12
Air Quality Not available.
Flu Activity No Activity
METAR KHSB 250035Z AUTO 00000KT 7SM CLR 12/12 A3006 RMK AO2 T01200115

More Conditions Fewer Conditions

Pressure 30.06 in
Visibility 7.0 miles
Clouds Clear
Dew Point 53 °F
Humidity 97%
Rainfall 0.00 in
Snow Depth Not available.
UV 0 out of 12
Pollen 1.80 out of 12
Air Quality Not available.
Flu Activity No Activity
METAR KHSB 250035Z AUTO 00000KT 7SM CLR 12/12 A3006 RMK AO2 T01200115

More Conditions Fewer Conditions

10-Day Weather Forecast

Almanac

Astronomy

Oct. 24, 2014 Rise Set
Actual Time 7:13 AM CDT 6:07 PM CDT
Civil Twilight 6:47 AM CDT 6:34 PM CDT
Nautical Twilight 6:16 AM CDT 7:04 PM CDT
Astronomical Twilight 5:46 AM CDT 7:35 PM CDT
Moon 7:52 AM CDT (10/24) 6:48 PM CDT (10/24)
Length of Visible Light 11h 47m
Length of Day
10h 53m
Tomorrow will be 2m 14s shorter.
New Moon, 1% of the Moon is Illuminated
Today
New Moon
Oct 30
First Quarter
Nov 6
Full
Nov 14
Last Quarter
Nov 22
New

Today's Extremes

State Highs State Lows

Community

WunderPhotos

Upload Photos

1,764,735 photos uploaded!

WunderBlogs® & News

Nearby

Snow Depth

Station Depth Elevation
No new snow has been reported.

Earthquake Activity

City Distance Mag. Time & Date
No recent earthquake activity has been reported nearby.
Minimum magnitude displayed is 2.5.

Coastal Water Temperatures

Place Temperature
No Stations Reporting

Nearby Weather Stations